Time;durP1;ratioP1;P1;durP2;ratioP2;P2;SDS_P1;SDS_P2;PMS_P1;PMS_P2;Temp;Humidity;BMP_temperature;BMP_pressure;BME280_temperature;BME280_humidity;BME280_pressure;Samples;Min_cycle;Max_cycle;Signal;HPM_P1;HPM_P2
2022/07/14 00:01:38;;;;;;;5.68;2.17;;;;;;;18.45;49.51;99719.22;5087757;28;20082;-74
2022/07/14 00:04:05;;;;;;;5.18;2.13;;;;;;;18.70;48.87;99721.56;5087908;28;20437;-74
2022/07/14 00:06:31;;;;;;;13.90;1.75;;;;;;;18.58;49.28;99717.81;5069424;28;20030;-74
2022/07/14 00:08:56;;;;;;;6.25;2.13;;;;;;;18.86;48.78;99718.53;5069176;28;20028;-74
2022/07/14 00:11:22;;;;;;;17.88;2.30;;;;;;;19.04;48.15;99718.78;5087222;28;20031;-74
2022/07/14 00:13:47;;;;;;;7.10;2.22;;;;;;;19.11;48.35;99723.72;5074884;28;20124;-74
2022/07/14 00:16:13;;;;;;;5.07;2.35;;;;;;;19.28;48.02;99713.78;5067294;28;20082;-74
2022/07/14 00:18:43;;;;;;;9.60;2.50;;;;;;;19.19;48.00;99726.28;5067168;28;20031;-74
2022/07/14 00:21:09;;;;;;;2.63;2.13;;;;;;;19.07;48.08;99715.19;5067140;28;20100;-74
2022/07/14 00:23:35;;;;;;;1.55;1.40;;;;;;;19.05;47.65;99720.41;5048914;28;20025;-74
2022/07/14 00:26:03;;;;;;;2.90;2.00;;;;;;;19.12;47.49;99722.53;5053359;28;20027;-74
2022/07/14 00:28:29;;;;;;;3.38;1.63;;;;;;;19.16;47.48;99724.19;5069307;28;20491;-74
2022/07/14 00:30:54;;;;;;;3.67;1.50;;;;;;;19.14;47.22;99715.25;5053558;28;20061;-74
2022/07/14 00:33:20;;;;;;;4.53;1.38;;;;;;;19.04;47.33;99715.97;5053767;28;20025;-74
2022/07/14 00:35:46;;;;;;;3.63;2.17;;;;;;;19.09;47.31;99715.63;5053848;28;20113;-75
2022/07/14 00:38:11;;;;;;;1.92;1.83;;;;;;;19.17;46.86;99716.50;5053726;28;20516;-74
2022/07/14 00:40:37;;;;;;;5.68;2.05;;;;;;;19.04;46.89;99708.28;5053668;28;20135;-75
2022/07/14 00:43:03;;;;;;;2.10;1.83;;;;;;;18.97;47.00;99715.84;5053561;28;20017;-74
2022/07/14 00:45:29;;;;;;;2.63;1.75;;;;;;;18.88;47.02;99716.97;5053562;28;20025;-75
2022/07/14 00:47:54;;;;;;;5.53;2.40;;;;;;;19.05;46.52;99717.59;5051541;28;20020;-74
2022/07/14 00:50:20;;;;;;;3.17;1.83;;;;;;;18.87;46.90;99723.00;5052201;28;20039;-74
2022/07/14 00:52:47;;;;;;;2.67;1.90;;;;;;;18.83;47.05;99719.31;5035235;28;20527;-74
2022/07/14 00:55:14;;;;;;;3.22;1.80;;;;;;;18.93;46.65;99710.13;5035536;28;20032;-74
2022/07/14 00:57:40;;;;;;;2.25;1.70;;;;;;;18.89;46.64;99706.47;5053264;28;20468;-74
2022/07/14 01:00:09;;;;;;;4.53;1.55;;;;;;;18.96;46.70;99711.41;5053321;28;20059;-74
2022/07/14 01:02:34;;;;;;;3.47;2.10;;;;;;;18.75;46.63;99699.38;5053078;28;20103;-74
2022/07/14 01:05:00;;;;;;;6.35;1.80;;;;;;;18.78;46.70;99704.31;5052997;28;20100;-74
2022/07/14 01:07:26;;;;;;;1.73;1.52;;;;;;;18.76;46.82;99706.72;5054073;28;20033;-74
2022/07/14 01:09:51;;;;;;;2.03;1.83;;;;;;;18.88;46.52;99711.28;5055164;28;20032;-74
2022/07/14 01:12:17;;;;;;;1.85;1.70;;;;;;;18.93;46.44;99702.44;5055883;28;20108;-74
2022/07/14 01:14:43;;;;;;;3.53;1.70;;;;;;;18.82;46.91;99707.16;5015374;28;20255;-74
2022/07/14 01:17:09;;;;;;;2.28;1.80;;;;;;;18.73;47.04;99701.78;5032978;28;20026;-74
2022/07/14 01:19:35;;;;;;;3.30;2.13;;;;;;;18.70;47.11;99708.25;5033063;28;20022;-74
2022/07/14 01:22:01;;;;;;;2.53;1.75;;;;;;;18.65;46.86;99705.75;5014893;28;20516;-74
2022/07/14 01:24:27;;;;;;;2.10;1.60;;;;;;;18.46;47.49;99709.53;5015233;28;20022;-74
2022/07/14 01:26:54;;;;;;;2.72;1.90;;;;;;;18.40;47.83;99706.19;5033001;28;20038;-74
2022/07/14 01:29:20;;;;;;;1.60;1.50;;;;;;;18.24;48.37;99698.72;5038980;28;20025;-74
2022/07/14 01:31:46;;;;;;;1.85;1.70;;;;;;;18.12;48.39;99707.44;5029908;28;20064;-74
2022/07/14 01:34:11;;;;;;;4.00;1.85;;;;;;;18.10;48.53;99710.66;5014882;28;20024;-74
2022/07/14 01:36:38;;;;;;;2.35;2.08;;;;;;;18.02;48.81;99710.88;5046779;28;20021;-75
2022/07/14 01:39:04;;;;;;;2.17;1.75;;;;;;;18.01;48.53;99690.25;5021475;28;20038;-74
2022/07/14 01:41:30;;;;;;;5.97;2.13;;;;;;;18.24;48.08;99710.03;5030589;28;20029;-73
2022/07/14 01:43:56;;;;;;;3.25;2.00;;;;;;;18.02;48.45;99708.88;5031323;28;20033;-74
2022/07/14 01:46:22;;;;;;;3.17;2.13;;;;;;;18.07;48.56;99716.25;5013539;28;20021;-74
2022/07/14 01:48:48;;;;;;;2.85;2.15;;;;;;;18.23;47.77;99705.56;5030841;28;20025;-73
2022/07/14 01:51:14;;;;;;;5.63;2.08;;;;;;;18.36;47.69;99706.19;5028721;28;20102;-74
2022/07/14 01:53:41;;;;;;;6.70;2.28;;;;;;;18.36;47.25;99711.84;5031293;28;20029;-74
2022/07/14 01:56:07;;;;;;;5.75;2.45;;;;;;;18.47;47.24;99714.00;5032267;28;20033;-74
2022/07/14 01:58:33;;;;;;;7.00;1.85;;;;;;;18.34;47.27;99708.59;5029952;28;20034;-74
2022/07/14 02:03:44;;;;;;;4.40;1.98;;;;;;;18.54;46.81;99704.78;5030769;28;20424;-74
2022/07/14 02:06:10;;;;;;;8.20;2.65;;;;;;;18.55;47.03;99706.44;5032161;28;20036;-74
2022/07/14 02:08:36;;;;;;;2.25;2.05;;;;;;;18.67;46.95;99720.34;5029815;28;20017;-74
2022/07/14 02:13:45;;;;;;;3.95;2.05;;;;;;;18.75;46.90;99724.09;5030820;28;20056;-75
2022/07/14 02:16:11;;;;;;;10.32;2.20;;;;;;;18.57;47.02;99718.19;5013532;28;20025;-74
2022/07/14 02:18:36;;;;;;;2.85;1.92;;;;;;;18.50;47.26;99718.91;5030888;28;20120;-74
2022/07/14 02:21:02;;;;;;;2.30;2.10;;;;;;;18.62;46.70;99709.34;5031558;28;20091;-74
2022/07/14 02:23:27;;;;;;;4.78;1.88;;;;;;;18.73;46.30;99718.78;5030116;28;20079;-74
2022/07/14 02:25:53;;;;;;;5.25;1.90;;;;;;;18.69;46.63;99720.78;5030751;28;20110;-74
2022/07/14 02:28:18;;;;;;;3.22;1.80;;;;;;;18.37;47.52;99719.13;5030797;28;20030;-75
2022/07/14 02:30:45;;;;;;;3.00;2.10;;;;;;;18.13;48.06;99725.25;5030974;28;20059;-74
2022/07/14 02:33:10;;;;;;;3.63;2.50;;;;;;;18.01;48.51;99726.22;5030886;28;20083;-74
2022/07/14 02:35:36;;;;;;;5.05;2.40;;;;;;;17.99;48.32;99725.78;5031581;28;20021;-74
2022/07/14 02:38:02;;;;;;;2.22;2.03;;;;;;;18.14;47.81;99724.03;5031562;28;20057;-74
2022/07/14 02:40:27;;;;;;;1.90;1.80;;;;;;;18.35;47.34;99730.03;5031448;28;20021;-74
2022/07/14 02:42:53;;;;;;;10.00;3.15;;;;;;;18.18;48.23;99730.56;5030656;28;20022;-74
2022/07/14 02:45:18;;;;;;;7.00;2.25;;;;;;;18.35;48.13;99740.53;5031525;28;20041;-74
2022/07/14 02:47:44;;;;;;;8.15;2.45;;;;;;;18.45;47.49;99730.53;5029967;28;20026;-74
2022/07/14 02:50:10;;;;;;;5.13;2.00;;;;;;;18.65;47.38;99732.06;5012889;28;20029;-74
2022/07/14 02:52:36;;;;;;;6.18;1.80;;;;;;;18.56;47.20;99737.19;5030781;28;20037;-74
2022/07/14 02:55:03;;;;;;;3.42;1.90;;;;;;;18.57;47.21;99733.16;5031308;28;20515;-74
2022/07/14 02:57:29;;;;;;;5.68;2.20;;;;;;;18.72;46.66;99739.81;5030151;28;20480;-74
2022/07/14 02:59:54;;;;;;;7.65;2.75;;;;;;;18.62;47.05;99727.16;5031201;28;20113;-74
2022/07/14 03:02:20;;;;;;;4.65;2.10;;;;;;;18.21;47.80;99738.28;5011050;28;20491;-73
2022/07/14 03:04:45;;;;;;;4.22;2.05;;;;;;;17.90;48.73;99741.00;5030075;28;20029;-75
2022/07/14 03:07:11;;;;;;;5.60;2.40;;;;;;;17.94;49.02;99741.06;5026956;28;20112;-74
2022/07/14 03:09:36;;;;;;;8.50;2.25;;;;;;;17.95;49.12;99742.69;5031194;28;20095;-74
2022/07/14 03:12:02;;;;;;;6.85;2.00;;;;;;;18.17;48.62;99743.09;5012566;28;20028;-74
2022/07/14 03:14:27;;;;;;;4.53;2.10;;;;;;;18.15;48.97;99745.47;5032384;28;20045;-74
2022/07/14 03:16:52;;;;;;;6.78;2.55;;;;;;;18.22;48.68;99749.25;5050119;28;20483;-74
2022/07/14 03:19:18;;;;;;;5.95;2.22;;;;;;;18.30;48.22;99732.38;5050842;28;20017;-74
2022/07/14 03:21:43;;;;;;;2.50;2.30;;;;;;;18.12;48.97;99734.94;5050257;28;20078;-75
2022/07/14 03:24:09;;;;;;;6.22;2.65;;;;;;;18.00;49.26;99738.75;5050251;28;20021;-74
2022/07/14 03:26:35;;;;;;;7.65;2.92;;;;;;;18.23;48.98;99742.38;5047785;28;20374;-73
2022/07/14 03:29:02;;;;;;;2.85;2.05;;;;;;;18.34;48.44;99736.91;5046281;28;20376;-74
2022/07/14 03:31:27;;;;;;;11.02;2.72;;;;;;;18.54;48.32;99736.75;5049008;28;20455;-75
2022/07/14 03:33:53;;;;;;;8.77;2.45;;;;;;;18.22;48.79;99737.91;5032318;28;20060;-74
2022/07/14 03:36:20;;;;;;;2.35;2.10;;;;;;;18.29;48.49;99740.03;5049886;28;20025;-74
2022/07/14 03:38:46;;;;;;;6.22;2.40;;;;;;;18.06;49.02;99737.25;5024707;28;20070;-74
2022/07/14 03:41:12;;;;;;;4.40;2.53;;;;;;;17.94;49.37;99738.25;5027810;28;20075;-74
2022/07/14 03:43:38;;;;;;;4.57;2.20;;;;;;;17.96;49.04;99738.69;5049943;28;20494;-75
2022/07/14 03:46:04;;;;;;;6.63;2.45;;;;;;;18.09;48.99;99740.13;5031659;28;20025;-76
2022/07/14 03:48:29;;;;;;;8.45;2.35;;;;;;;18.15;48.17;99734.16;5049353;28;20032;-77
2022/07/14 03:50:55;;;;;;;3.45;2.65;;;;;;;18.14;48.41;99735.34;5049885;28;20021;-75
2022/07/14 03:53:20;;;;;;;5.38;2.42;;;;;;;18.36;47.55;99743.00;5032671;28;20032;-74
2022/07/14 03:55:46;;;;;;;4.78;2.10;;;;;;;18.35;47.42;99749.84;5050400;28;20032;-74
2022/07/14 03:58:11;;;;;;;4.95;2.45;;;;;;;18.38;48.04;99736.91;5049747;28;20025;-78
2022/07/14 04:00:37;;;;;;;7.03;2.33;;;;;;;18.35;47.91;99738.53;5049662;28;20029;-74
2022/07/14 04:03:02;;;;;;;9.95;1.73;;;;;;;18.38;47.87;99749.06;5053019;28;20086;-76
2022/07/14 04:05:28;;;;;;;6.57;2.60;;;;;;;18.56;47.61;99742.84;5039979;28;20112;-75
2022/07/14 04:07:53;;;;;;;7.07;2.00;;;;;;;18.78;47.09;99737.47;5049254;28;20033;-74
2022/07/14 04:10:19;;;;;;;11.02;1.85;;;;;;;18.89;46.76;99744.09;5036315;28;20056;-75
2022/07/14 04:12:44;;;;;;;3.58;2.10;;;;;;;18.91;46.66;99738.84;5040840;28;20045;-75
2022/07/14 04:15:10;;;;;;;4.20;1.95;;;;;;;18.96;46.84;99745.41;5026019;28;20029;-74
2022/07/14 04:17:36;;;;;;;7.72;2.72;;;;;;;18.98;47.16;99748.66;5031460;28;20053;-73
2022/07/14 04:20:03;;;;;;;4.28;2.38;;;;;;;18.86;47.72;99755.38;5032291;28;20483;-75
2022/07/14 04:22:28;;;;;;;6.68;1.90;;;;;;;18.91;48.21;99750.19;5015160;28;20029;-75
2022/07/14 04:24:54;;;;;;;7.00;2.42;;;;;;;19.03;47.42;99749.16;5015577;28;20044;-75
2022/07/14 04:27:20;;;;;;;12.80;2.22;;;;;;;19.29;47.14;99750.28;5035816;28;20587;-75
2022/07/14 04:29:46;;;;;;;8.90;1.98;;;;;;;19.49;46.62;99758.59;5033772;28;20027;-75
2022/07/14 04:32:11;;;;;;;10.65;2.38;;;;;;;19.69;47.42;99755.53;5006246;28;20033;-75
2022/07/14 04:34:37;;;;;;;10.27;2.20;;;;;;;19.80;46.37;99749.97;5031296;28;20032;-75
2022/07/14 04:37:03;;;;;;;8.75;2.13;;;;;;;19.85;46.10;99763.78;5030346;28;20030;-75
2022/07/14 04:39:29;;;;;;;4.63;2.08;;;;;;;19.81;45.68;99760.13;5031890;28;20029;-75
2022/07/14 04:41:54;;;;;;;7.40;1.90;;;;;;;19.87;45.25;99761.38;5031090;28;20065;-75
2022/07/14 04:44:20;;;;;;;3.03;1.50;;;;;;;19.90;45.16;99766.25;5029482;28;20462;-75
2022/07/14 04:46:45;;;;;;;2.60;1.95;;;;;;;20.11;45.83;99777.03;5031264;28;20033;-75
2022/07/14 04:52:04;;;;;;;3.40;2.13;;;;;;;20.44;45.14;99778.06;5029067;28;20045;-75
2022/07/14 04:54:31;;;;;;;3.88;1.98;;;;;;;20.57;45.25;99781.41;5033300;28;20041;-75
2022/07/14 04:56:57;;;;;;;10.35;2.03;;;;;;;20.63;45.16;99776.16;5031980;28;20025;-74
2022/07/14 04:59:23;;;;;;;3.45;1.75;;;;;;;20.61;45.27;99775.75;5014906;28;20187;-75
2022/07/14 05:01:48;;;;;;;4.25;2.22;;;;;;;20.82;45.16;99777.13;5032125;28;20044;-75
2022/07/14 05:04:14;;;;;;;4.63;2.20;;;;;;;20.90;44.37;99778.78;5031142;28;20029;-74
2022/07/14 05:06:39;;;;;;;6.07;2.33;;;;;;;21.11;44.24;99780.88;5032840;28;20029;-75
2022/07/14 05:09:05;;;;;;;9.02;2.63;;;;;;;21.06;44.02;99784.13;5030030;28;20043;-75
2022/07/14 05:11:30;;;;;;;10.10;1.80;;;;;;;21.13;43.67;99795.56;5032255;28;20029;-76
2022/07/14 05:13:56;;;;;;;6.32;1.92;;;;;;;21.22;43.46;99794.34;5029606;28;20496;-75
2022/07/14 05:16:22;;;;;;;6.90;2.03;;;;;;;21.22;42.78;99794.34;5012051;28;20022;-73
2022/07/14 05:18:47;;;;;;;12.20;2.15;;;;;;;21.27;42.46;99794.78;5024576;28;20064;-75
2022/07/14 05:21:13;;;;;;;7.85;3.72;;;;;;;21.23;42.18;99784.59;5026567;28;20407;-75
2022/07/14 05:23:39;;;;;;;14.40;5.93;;;;;;;21.39;42.81;99805.00;5030338;28;20033;-74
2022/07/14 05:26:12;;;;;;;23.58;5.28;;;;;;;21.54;41.65;99805.84;5029993;28;20029;-75
2022/07/14 05:28:37;;;;;;;11.48;3.85;;;;;;;21.40;41.18;99800.94;5006834;28;20037;-75
2022/07/14 05:31:03;;;;;;;6.78;3.03;;;;;;;21.42;41.55;99801.34;5005115;28;20397;-75
2022/07/14 05:33:28;;;;;;;6.35;2.63;;;;;;;21.69;41.10;99803.06;5004642;28;20117;-75
2022/07/14 05:35:55;;;;;;;9.10;2.42;;;;;;;21.84;40.52;99790.47;5023432;28;20508;-74
2022/07/14 05:38:21;;;;;;;4.88;2.00;;;;;;;21.77;41.29;99790.47;5008494;28;20052;-75
2022/07/14 05:40:47;;;;;;;4.22;2.00;;;;;;;21.91;41.52;99786.03;5030109;28;20026;-75
2022/07/14 05:43:13;;;;;;;7.43;1.67;;;;;;;21.96;41.56;99785.59;5025223;28;20052;-75
2022/07/14 05:45:39;;;;;;;4.97;2.13;;;;;;;22.03;40.91;99791.31;5023207;28;20463;-75
2022/07/14 05:48:05;;;;;;;6.70;2.58;;;;;;;22.11;40.82;99794.97;5008703;28;20132;-75
2022/07/14 05:50:30;;;;;;;2.88;1.73;;;;;;;22.14;40.62;99799.84;5010480;28;20458;-75
2022/07/14 05:52:56;;;;;;;2.35;1.80;;;;;;;22.25;40.49;99788.44;5020039;28;20034;-77
2022/07/14 05:55:22;;;;;;;6.78;1.75;;;;;;;22.35;40.26;99799.03;5031419;28;20025;-78
2022/07/14 05:57:48;;;;;;;5.38;1.50;;;;;;;22.38;39.95;99795.34;5028865;28;20029;-78
2022/07/14 06:00:15;;;;;;;2.53;1.73;;;;;;;22.56;40.30;99798.25;5031315;28;20040;-80
2022/07/14 06:02:44;;;;;;;8.55;2.60;;;;;;;22.63;39.95;99797.41;5030543;28;20538;-74
2022/07/14 06:05:10;;;;;;;16.73;7.32;;;;;;;22.89;39.42;99803.88;5013621;28;20106;-77
2022/07/14 06:07:37;;;;;;;41.17;12.90;;;;;;;23.00;39.20;99801.78;5000264;28;20121;-78
2022/07/14 06:10:04;;;;;;;49.90;27.00;;;;;;;23.20;38.43;99806.19;5028904;28;20025;-77
2022/07/14 06:12:29;;;;;;;25.45;13.13;;;;;;;23.25;39.15;99797.19;5028371;28;20420;-77
2022/07/14 06:14:55;;;;;;;28.45;13.63;;;;;;;23.27;39.26;99795.59;5012104;28;20045;-77
2022/07/14 06:17:21;;;;;;;6.30;3.63;;;;;;;23.47;38.68;99794.28;5011891;28;20068;-78
2022/07/14 06:19:46;;;;;;;3.75;2.20;;;;;;;23.38;37.96;99801.25;5012453;28;20025;-76
2022/07/14 06:22:12;;;;;;;11.93;6.05;;;;;;;23.58;38.57;99792.19;5010349;28;20022;-73
2022/07/14 06:24:38;;;;;;;7.93;3.35;;;;;;;23.75;37.39;99792.47;5024599;28;20532;-78
2022/07/14 06:27:04;;;;;;;3.42;1.85;;;;;;;23.88;36.54;99792.81;5026877;28;20550;-76
2022/07/14 06:29:29;;;;;;;4.97;1.77;;;;;;;24.09;37.10;99780.41;5025271;28;20022;-75
2022/07/14 06:31:55;;;;;;;4.53;1.80;;;;;;;24.16;36.79;99782.41;5030290;28;20029;-74
2022/07/14 06:34:25;;;;;;;27.40;12.93;;;;;;;24.43;37.26;99785.44;5012410;28;20087;-78
2022/07/14 06:36:50;;;;;;;23.85;9.30;;;;;;;24.61;36.77;99779.53;5029667;28;20026;-79
2022/07/14 06:39:16;;;;;;;11.38;5.70;;;;;;;24.65;36.36;99774.56;5029394;28;20107;-76
2022/07/14 06:41:42;;;;;;;14.57;5.38;;;;;;;24.84;36.92;99786.69;5025696;28;20037;-79
2022/07/14 06:44:07;;;;;;;34.65;16.02;;;;;;;25.01;37.32;99778.31;5020605;28;20017;-78
2022/07/14 06:46:33;;;;;;;12.65;3.00;;;;;;;25.23;35.28;99773.13;5010971;28;20036;-78
2022/07/14 06:48:59;;;;;;;8.13;2.05;;;;;;;25.36;35.75;99774.19;5025868;28;20567;-79
2022/07/14 06:51:26;;;;;;;4.95;3.10;;;;;;;25.46;34.91;99772.41;5027479;28;20095;-78
2022/07/14 06:53:52;;;;;;;8.27;2.40;;;;;;;25.37;35.34;99775.81;5031071;28;20029;-81
2022/07/14 06:56:17;;;;;;;4.78;2.72;;;;;;;25.49;35.82;99774.44;5031118;28;20030;-79
2022/07/14 06:58:43;;;;;;;8.20;2.03;;;;;;;25.54;34.78;99778.84;5029925;28;20029;-76
2022/07/14 07:01:09;;;;;;;3.00;1.70;;;;;;;25.54;34.54;99770.28;5028764;28;20411;-77
2022/07/14 07:03:36;;;;;;;7.65;1.85;;;;;;;25.81;35.36;99771.53;5022292;28;20028;-75
2022/07/14 07:08:45;;;;;;;4.88;2.00;;;;;;;25.84;35.57;99771.47;5021285;28;20466;-76
2022/07/14 07:11:11;;;;;;;11.10;3.03;;;;;;;25.96;33.50;99763.53;5015396;28;20029;-76
2022/07/14 07:13:39;;;;;;;4.47;1.83;;;;;;;26.11;33.86;99764.06;5021410;28;20041;-79
2022/07/14 07:16:06;;;;;;;8.57;1.90;;;;;;;26.24;34.43;99758.56;5023220;28;20590;-76
2022/07/14 07:18:32;;;;;;;8.02;2.33;;;;;;;26.43;33.49;99752.09;5020653;28;20040;-79
2022/07/14 07:20:58;;;;;;;7.97;1.52;;;;;;;26.43;33.52;99751.25;5015403;28;20032;-80
2022/07/14 07:23:24;;;;;;;6.93;1.75;;;;;;;26.39;32.47;99744.78;5003895;28;20037;-75
2022/07/14 07:25:50;;;;;;;6.25;1.58;;;;;;;26.31;33.32;99744.13;5021906;28;20472;-75
2022/07/14 07:28:15;;;;;;;6.57;3.15;;;;;;;26.47;34.10;99737.66;5003762;28;20036;-77
2022/07/14 07:30:41;;;;;;;8.48;1.50;;;;;;;26.57;32.77;99747.31;5021587;28;20033;-81
2022/07/14 07:33:08;;;;;;;12.32;2.78;;;;;;;26.73;32.10;99744.53;5021934;28;20544;-83
2022/07/14 07:35:33;;;;;;;6.15;1.55;;;;;;;26.79;32.71;99727.63;5006404;28;20057;-82
2022/07/14 07:37:59;;;;;;;8.55;1.83;;;;;;;26.88;31.06;99741.41;5026632;28;20095;-78
2022/07/14 07:40:25;;;;;;;5.15;1.15;;;;;;;26.97;29.55;99735.88;5028578;28;20052;-81
2022/07/14 07:42:50;;;;;;;3.28;1.30;;;;;;;27.07;29.19;99738.97;5016657;28;20108;-79
2022/07/14 07:45:16;;;;;;;6.10;1.38;;;;;;;27.19;29.59;99735.44;5032046;28;20029;-78
2022/07/14 07:47:41;;;;;;;2.33;1.70;;;;;;;27.23;29.92;99727.53;5014097;28;20119;-81
2022/07/14 07:50:08;;;;;;;5.70;1.70;;;;;;;27.30;29.88;99733.13;5014238;28;20033;-80
2022/07/14 07:52:34;;;;;;;4.82;1.50;;;;;;;27.56;29.53;99732.56;5019301;28;20575;-80
2022/07/14 07:55:00;;;;;;;6.07;2.58;;;;;;;27.43;28.78;99718.88;5030910;28;20167;-77
2022/07/14 07:57:26;;;;;;;2.80;1.35;;;;;;;27.55;28.84;99725.22;5029632;28;20022;-75
2022/07/14 07:59:52;;;;;;;5.70;1.02;;;;;;;27.37;28.82;99726.41;5032235;28;20056;-76
2022/07/14 08:02:18;;;;;;;3.10;1.27;;;;;;;27.38;28.48;99730.09;5029540;28;21563;-76
2022/07/14 08:04:44;;;;;;;8.13;3.42;;;;;;;27.67;28.38;99717.97;5030947;28;20083;-77
2022/07/14 08:07:10;;;;;;;4.15;1.65;;;;;;;28.08;28.67;99719.38;5027651;28;20041;-74
2022/07/14 08:09:35;;;;;;;3.70;1.35;;;;;;;28.24;27.85;99712.84;5043596;28;20163;-73
2022/07/14 08:12:01;;;;;;;4.03;1.15;;;;;;;28.25;27.78;99713.66;5031533;28;20072;-75
2022/07/14 08:17:11;;;;;;;5.90;1.27;;;;;;;28.52;27.21;99712.53;5030430;28;20087;-75
2022/07/14 08:19:36;;;;;;;2.88;1.15;;;;;;;28.72;27.40;99704.56;5020726;28;20029;-76
2022/07/14 08:22:02;;;;;;;11.55;1.77;;;;;;;28.71;27.07;99705.78;5024401;28;20601;-78
2022/07/14 08:24:29;;;;;;;6.15;1.85;;;;;;;28.88;26.37;99707.81;5014090;28;20033;-76
2022/07/14 08:26:55;;;;;;;8.27;2.53;;;;;;;28.53;27.26;99706.28;5020630;28;20060;-77
2022/07/14 08:29:20;;;;;;;2.80;1.40;;;;;;;28.86;27.22;99702.53;5031161;28;20037;-75
2022/07/14 08:31:46;;;;;;;3.92;1.45;;;;;;;29.00;26.59;99702.13;5032920;28;20022;-76
2022/07/14 08:34:11;;;;;;;5.75;2.45;;;;;;;28.68;27.14;99700.94;5033343;28;20047;-77
2022/07/14 08:36:37;;;;;;;12.35;1.90;;;;;;;28.56;27.02;99704.59;5014920;28;20031;-77
2022/07/14 08:39:05;;;;;;;6.00;2.10;;;;;;;28.42;26.41;99702.94;5031381;28;20025;-77
2022/07/14 08:41:32;;;;;;;1.88;1.45;;;;;;;28.10;26.42;99708.25;5031877;28;20506;-77
2022/07/14 08:43:58;;;;;;;2.95;2.15;;;;;;;28.67;26.64;99699.34;5011269;28;20032;-75
2022/07/14 08:46:24;;;;;;;5.85;1.90;;;;;;;29.16;27.54;99702.50;5026201;28;20029;-77
2022/07/14 08:48:52;;;;;;;2.78;1.73;;;;;;;29.39;25.83;99696.41;5010465;28;20056;-76
2022/07/14 08:51:18;;;;;;;6.30;2.30;;;;;;;28.04;26.91;99701.44;5023151;28;20053;-75
2022/07/14 08:53:44;;;;;;;4.22;1.58;;;;;;;28.32;26.22;99695.41;5013998;28;20408;-75
2022/07/14 08:56:11;;;;;;;6.22;2.20;;;;;;;28.83;26.62;99695.63;5006743;28;20025;-73
2022/07/14 08:58:38;;;;;;;7.35;2.22;;;;;;;29.20;26.60;99692.47;5007389;28;20099;-73
2022/07/14 09:01:03;;;;;;;3.15;2.10;;;;;;;29.31;25.06;99683.50;5017549;28;20052;-75
2022/07/14 09:03:29;;;;;;;3.25;1.92;;;;;;;29.07;24.59;99685.88;5030842;28;20049;-74
2022/07/14 09:05:54;;;;;;;2.42;1.80;;;;;;;29.31;24.02;99682.66;5028211;28;20030;-77
2022/07/14 09:08:20;;;;;;;4.00;2.53;;;;;;;29.36;24.67;99685.78;5032293;28;20029;-77
2022/07/14 09:10:46;;;;;;;4.82;1.92;;;;;;;29.38;24.20;99685.34;5012612;28;20396;-80
2022/07/14 09:13:17;;;;;;;7.60;2.35;;;;;;;29.27;24.79;99689.34;5025194;28;20061;-79
2022/07/14 09:15:47;;;;;;;7.15;2.50;;;;;;;29.24;24.37;99678.75;5053276;28;20466;-81
2022/07/14 09:18:26;;;;;;;6.70;2.30;;;;;;;29.37;24.28;99683.72;5052310;28;20032;-78
2022/07/14 09:20:54;;;;;;;3.20;2.17;;;;;;;29.55;23.42;99681.06;5056621;28;20092;-78
2022/07/14 09:23:31;;;;;;;9.98;2.40;;;;;;;29.62;23.93;99680.03;5055797;28;20025;-79
2022/07/14 09:26:16;;;;;;;6.00;2.05;;;;;;;29.63;24.11;99680.84;5052174;28;20502;-76
2022/07/14 09:28:44;;;;;;;10.80;2.42;;;;;;;29.66;24.15;99672.09;5047727;28;20029;-76
2022/07/14 09:31:27;;;;;;;10.98;2.25;;;;;;;29.84;23.49;99671.50;5049473;28;20020;-75
2022/07/14 09:34:01;;;;;;;16.38;3.03;;;;;;;30.06;24.02;99667.09;5031236;28;20028;-75
2022/07/14 09:36:29;;;;;;;17.50;2.95;;;;;;;30.08;23.96;99665.34;5047923;28;20036;-75
2022/07/14 09:39:01;;;;;;;13.82;3.80;;;;;;;29.97;23.67;99668.56;5050916;28;20454;-76
2022/07/14 09:41:29;;;;;;;2.88;1.83;;;;;;;29.90;23.69;99663.06;5052183;28;20024;-75
2022/07/14 09:44:14;;;;;;;4.80;1.92;;;;;;;29.72;23.60;99657.91;5051065;28;20021;-76
2022/07/14 09:46:57;;;;;;;3.13;1.98;;;;;;;29.66;23.44;99654.81;5033627;28;20032;-75
2022/07/14 09:49:25;;;;;;;6.38;2.33;;;;;;;29.71;22.92;99647.66;5052532;28;20057;-76
2022/07/14 09:51:55;;;;;;;2.88;1.52;;;;;;;29.85;23.27;99660.75;5052148;28;20020;-76
2022/07/14 09:54:49;;;;;;;2.13;1.70;;;;;;;29.71;23.11;99641.91;5049047;28;20029;-74
2022/07/14 09:57:14;;;;;;;9.68;1.67;;;;;;;30.07;23.43;99646.44;5040500;28;20150;-76
2022/07/14 09:59:47;;;;;;;11.10;1.90;;;;;;;29.99;23.43;99647.94;5042258;28;20514;-73
2022/07/14 10:02:21;;;;;;;6.28;1.88;;;;;;;30.14;23.71;99638.78;5043123;28;20025;-78
2022/07/14 10:04:48;;;;;;;3.70;1.75;;;;;;;30.11;24.30;99650.00;5029793;28;20121;-77
2022/07/14 10:07:15;;;;;;;4.15;1.83;;;;;;;30.27;23.16;99630.91;5041651;28;20081;-79
2022/07/14 10:09:48;;;;;;;9.93;2.33;;;;;;;30.52;24.07;99637.81;5023464;28;20031;-76
2022/07/14 10:12:14;;;;;;;4.47;2.10;;;;;;;30.63;22.50;99637.41;5039715;28;20025;-73
2022/07/14 10:14:40;;;;;;;2.60;1.25;;;;;;;30.67;22.84;99638.94;5024338;28;20116;-73
2022/07/14 10:17:06;;;;;;;5.10;1.95;;;;;;;30.71;22.17;99635.91;5022720;28;20426;-78
2022/07/14 10:19:32;;;;;;;7.97;2.53;;;;;;;30.38;22.53;99634.19;5024133;28;20514;-76
2022/07/14 10:21:59;;;;;;;5.03;1.75;;;;;;;30.25;23.68;99628.50;4999497;28;20049;-79
2022/07/14 10:24:25;;;;;;;4.15;1.75;;;;;;;30.58;22.69;99638.00;5023166;28;20029;-79
2022/07/14 10:26:53;;;;;;;4.60;1.92;;;;;;;30.57;22.61;99625.69;5023026;28;20120;-79
2022/07/14 10:29:19;;;;;;;7.88;1.80;;;;;;;31.19;22.55;99629.88;5022653;28;20471;-78
2022/07/14 10:32:04;;;;;;;3.50;1.70;;;;;;;31.23;22.73;99621.13;5004415;28;20438;-77
2022/07/14 10:34:46;;;;;;;9.07;1.70;;;;;;;31.40;22.90;99626.63;4996024;28;20409;-77
2022/07/14 10:37:27;;;;;;;7.45;1.90;;;;;;;31.38;21.39;99622.13;5013424;28;20156;-78
2022/07/14 10:40:08;;;;;;;3.75;1.63;;;;;;;31.46;21.36;99627.63;5021700;28;20026;-78
2022/07/14 10:43:00;;;;;;;2.80;1.73;;;;;;;31.46;22.48;99630.50;5021839;28;20041;-78
2022/07/14 10:45:26;;;;;;;12.40;2.60;;;;;;;31.42;21.87;99619.09;5029539;28;20473;-78
2022/07/14 10:47:53;;;;;;;4.78;1.70;;;;;;;31.18;21.94;99619.63;5026104;28;20025;-78
2022/07/14 10:50:27;;;;;;;3.00;1.60;;;;;;;31.13;22.12;99625.22;5025267;28;20026;-78
2022/07/14 10:52:55;;;;;;;4.13;1.55;;;;;;;31.23;22.28;99618.22;5004526;28;20114;-78
2022/07/14 10:55:27;;;;;;;2.90;1.17;;;;;;;31.36;22.17;99612.31;5003097;28;20052;-78
2022/07/14 10:57:58;;;;;;;2.97;1.35;;;;;;;31.52;22.05;99603.41;5007534;28;20040;-79
2022/07/14 11:00:43;;;;;;;1.52;1.30;;;;;;;31.77;22.32;99606.47;5010025;28;20041;-78
2022/07/14 11:03:27;;;;;;;4.13;1.50;;;;;;;31.99;20.70;99596.91;5024724;28;20339;-78
2022/07/14 11:06:07;;;;;;;3.05;1.40;;;;;;;32.05;20.77;99607.34;5026180;28;20080;-79
2022/07/14 11:08:37;;;;;;;9.27;1.42;;;;;;;31.87;20.83;99584.22;5028387;28;20036;-78
2022/07/14 11:11:08;;;;;;;6.28;1.25;;;;;;;32.03;20.86;99580.19;5029283;28;20080;-79
2022/07/14 11:13:35;;;;;;;3.50;1.33;;;;;;;32.01;21.72;99588.53;5023108;28;20056;-78
2022/07/14 11:16:03;;;;;;;3.80;1.20;;;;;;;31.99;21.41;99589.03;5031312;28;20392;-79
2022/07/14 11:18:37;;;;;;;4.45;0.90;;;;;;;32.05;20.53;99589.97;5031814;28;20094;-78
2022/07/14 11:21:08;;;;;;;3.60;1.10;;;;;;;31.83;20.69;99578.59;5043483;28;20029;-78
2022/07/14 11:23:39;;;;;;;2.92;1.55;;;;;;;32.14;20.66;99580.50;5048595;28;20047;-78
2022/07/14 11:26:40;;;;;;;2.35;1.02;;;;;;;32.27;20.86;99577.44;5039787;28;20029;-78
2022/07/14 11:29:08;;;;;;;5.35;1.40;;;;;;;32.48;21.39;99574.88;5030043;28;20037;-78
2022/07/14 11:31:49;;;;;;;11.77;2.35;;;;;;;32.62;20.45;99571.31;5034288;28;20037;-79
2022/07/14 11:37:09;;;;;;;7.80;1.30;;;;;;;32.72;19.86;99571.28;5050870;28;20035;-79
2022/07/14 11:39:36;;;;;;;1.15;0.90;;;;;;;31.76;19.41;99571.00;5050682;28;20029;-79
2022/07/14 11:42:14;;;;;;;3.08;1.13;;;;;;;32.13;20.69;99567.31;5050877;28;20079;-79
2022/07/14 11:44:39;;;;;;;4.03;1.27;;;;;;;32.76;20.62;99571.91;5032099;28;20029;-79
2022/07/14 11:47:22;;;;;;;7.55;1.25;;;;;;;32.89;20.74;99566.69;5047584;28;20031;-79
2022/07/14 11:50:07;;;;;;;4.15;1.10;;;;;;;32.29;19.21;99563.28;5048430;28;20025;-79